Skip Navigation Links
NOAA logo - Click to go to the NOAA homepage
NOAA's National Weather Service
Alaska Aviation Weather Unit
  NWS logo - Click to go to the NWS homepage
Left Navbar Graphic     23 AKDT = 07 GMT

   
NOAA is celebrating 200 years of science, service, and stewardship. Visit the NOAA 200th celebration Web site to learn more.
USA.gov is the U.S. Government's official Web portal to all Federal, state and local government Web resources and services.
Facebook
NWS on Facebook

AAWU Home :: Display TAF Add Bookmark
TAF PATK 240525Z 2406/2506 VRB03KT P6SM BKN100=
METAR PATK 240153Z AUTO 22005KT 10SM OVC080 14/M05 A2965 RMK SLP043
     T01391050 TSNO VIA AUTODIAL=

METAR PATK 240253Z AUTO 20007KT 10SM OVC085 13/M03 A2965 RMK SLP044
     T01331028 55005 TSNO VIA AUTODIAL=

METAR PATK 240353Z AUTO 21005KT 10SM OVC085 12/M02 A2964 RMK SLP042
     T01221022 TSNO VIA AUTODIAL=

METAR PATK 240453Z AUTO 23004KT 10SM OVC080 12/M01 A2965 RMK SLP043
     T01221011 TSNO VIA AUTODIAL=

METAR PATK 240553Z AUTO 00000KT 10SM OVC060 11/00 A2965 RMK SLP043
 T01060000 10139 20106 56000 TSNO VIA AUTODIAL=

METAR PATK 240653Z AUTO 00000KT 10SM OVC060 09/00 A2965 RMK SLP045
     T00940000 TSNO VIA AUTODIAL=


NOAA's National Weather Service
Alaska Aviation Weather Unit
6930 Sand Lake Road
Anchorage, AK 99502-1845
Disclaimer
Credits
Glossary
Privacy Policy
About Us
Career Opportunities
Contact AAWU Internet Services Site last modified: April, 17th 2012